Rechercher aéroport 
image banner adimage banner ad
image banner ad

FQVL - Vilankulo / National

Situé à , Mozambique

ICAO - FQVL, IATA - VNX

Données fournies par Airmate  

Information générale

Coordonnées: S22°0'60" E35°19'0"
Élévation : 46 feet MSL.
 
Voir autres Aéroports à Inhambane Province

Données opérationnelles

Accessible au public
Heure actuelle UTC:
Heure actuelle locale:
Météo
TAF: TAF FQVL 221600Z 2218/2318 17012KT 9000 SCT010 BKN015 BKN020 TX30/2313Z TN24/2303Z TEMPO 2218/2224 5000 TSRA SCT012 OVC015 FEW020CB BECMG 2306/2308 10010KT BECMG 2312/2314 06015KT
Voir NOTAMs / SUP AIP / TFR affectant cet aéroport [VIEW]
Fréquences de communication: [VIEW]

Pistes:

Identifiant RWYQFULongueur (ft)Largeur (ft)SurfaceLDA (ft)
1089°246175ASP
28246175
17482398
35482398

Coordonnées de l'aéroport

Adresse: Mozambique

Vue satellite de FQVL